Wantage, United Kingdom
Current Conditions -  °F | °C
As of 11:50 PM on Tuesday 25 Nov 2014 (Local Time) from EGVN Reporting Station
Light Rain Light Rain  
Wind Chill: 40°   Ceiling: 1000
Heat Index: 45°   Visibility: 1.2mi
Dew Point: 43°   Wind: 8mph
Humidity: 93%   Direction: 30°NNE
Pressure: 29.97"   Gusts: NA
Location:  51.6°N, 1.42°W
Report Text: EGVN 252350Z 03007KT 2000 -RADZ FEW005 BKN010 07/06 Q1015 REDZ YLO2 TEMPO 4000 GRN
Loading
Personal Weather Stations






























Interactive Weather Map New forecast layout! Learn more

10-Day Weather Forecast

Advertisements
Track Severe Weather on mobile